createdAt,value
2018-05-15T00:00:17.132Z,5.30
2018-05-15T00:00:53.946Z,6.10
2018-05-15T00:01:29.272Z,6.10
2018-05-15T00:02:04.931Z,6.90
2018-05-15T00:02:41.224Z,7.00
2018-05-15T00:03:16.319Z,6.10
2018-05-15T00:03:51.666Z,6.80
2018-05-15T00:04:26.932Z,6.50
2018-05-15T00:05:02.775Z,6.00
2018-05-15T00:05:39.705Z,6.00
2018-05-15T00:06:15.496Z,6.50
2018-05-15T00:06:52.236Z,5.50
2018-05-15T00:07:27.647Z,5.40
2018-05-15T00:08:03.146Z,6.00
2018-05-15T00:08:39.209Z,6.30
2018-05-15T00:09:14.502Z,6.20
2018-05-15T00:09:50.230Z,5.90
2018-05-15T00:11:05.732Z,5.50
2018-05-15T00:11:41.110Z,6.50
2018-05-15T00:12:16.657Z,5.70
2018-05-15T00:12:51.918Z,5.80
2018-05-15T00:13:27.739Z,6.00
2018-05-15T00:14:03.441Z,5.90
2018-05-15T00:14:38.827Z,6.00
2018-05-15T00:15:14.291Z,6.00
2018-05-15T00:15:49.835Z,6.50
2018-05-15T00:16:24.980Z,6.30
2018-05-15T00:17:00.414Z,6.00
2018-05-15T00:17:36.728Z,6.20
2018-05-15T00:18:12.305Z,6.10
2018-05-15T00:18:47.797Z,5.90
2018-05-15T00:19:26.319Z,6.20
2018-05-15T00:20:03.276Z,6.10
2018-05-15T00:20:40.472Z,5.20
2018-05-15T00:21:16.001Z,5.60
2018-05-15T00:21:51.342Z,5.90
2018-05-15T00:22:26.907Z,6.10
2018-05-15T00:23:02.312Z,6.20
2018-05-15T00:23:37.440Z,6.70
2018-05-15T00:24:12.936Z,6.00
2018-05-15T00:24:49.423Z,6.10
2018-05-15T00:25:24.795Z,6.20
2018-05-15T00:26:00.284Z,6.50
2018-05-15T00:26:35.673Z,7.00
2018-05-15T00:27:10.899Z,6.80
2018-05-15T00:27:47.217Z,6.50
2018-05-15T00:28:22.338Z,6.40
2018-05-15T00:28:57.999Z,6.00
2018-05-15T00:29:33.448Z,6.30
2018-05-15T00:30:08.955Z,6.70
2018-05-15T00:30:45.353Z,6.40
2018-05-15T00:31:20.477Z,6.00
2018-05-15T00:31:55.863Z,6.50
2018-05-15T00:32:30.929Z,6.40
2018-05-15T00:33:06.605Z,6.20
2018-05-15T00:33:42.203Z,6.20
2018-05-15T00:34:17.711Z,5.90
2018-05-15T00:34:54.354Z,6.40
2018-05-15T00:35:29.832Z,6.30
2018-05-15T00:36:05.296Z,6.30
2018-05-15T00:36:41.256Z,6.30
2018-05-15T00:37:18.071Z,6.30
2018-05-15T00:37:53.417Z,6.00
2018-05-15T00:38:28.778Z,6.70
2018-05-15T00:39:03.976Z,6.20
2018-05-15T00:39:40.141Z,5.80
2018-05-15T00:40:15.636Z,6.10
2018-05-15T00:40:51.401Z,6.70
2018-05-15T00:41:26.650Z,7.00
2018-05-15T00:42:02.346Z,6.00
2018-05-15T00:42:38.282Z,6.40
2018-05-15T00:43:14.461Z,6.70
2018-05-15T00:43:49.735Z,6.40
2018-05-15T00:44:25.069Z,6.10
2018-05-15T00:45:00.708Z,6.80
2018-05-15T00:45:35.909Z,6.70
2018-05-15T00:46:11.488Z,6.40
2018-05-15T00:46:48.135Z,6.10
2018-05-15T00:47:23.798Z,5.90
2018-05-15T00:47:59.457Z,6.40
2018-05-15T00:48:34.691Z,7.50
2018-05-15T00:49:10.062Z,6.50
2018-05-15T00:49:47.020Z,6.00
2018-05-15T00:50:22.711Z,6.70
2018-05-15T00:50:58.483Z,6.00
2018-05-15T00:51:33.653Z,6.00
2018-05-15T00:52:09.505Z,6.20
2018-05-15T00:52:44.865Z,6.70
2018-05-15T00:53:20.245Z,6.90
2018-05-15T00:53:55.587Z,6.60
2018-05-15T00:54:31.293Z,6.30
2018-05-15T00:55:06.665Z,6.60
2018-05-15T00:55:42.133Z,6.30
2018-05-15T00:56:17.411Z,6.60
2018-05-15T00:56:52.890Z,6.60
2018-05-15T00:57:28.362Z,6.40
2018-05-15T00:58:03.775Z,6.20
2018-05-15T00:58:39.130Z,6.10
2018-05-15T00:59:14.982Z,6.80
2018-05-15T00:59:50.084Z,6.80
2018-05-15T01:00:25.411Z,6.30
2018-05-15T01:01:01.325Z,5.60
2018-05-15T01:01:36.870Z,5.70
2018-05-15T01:02:12.223Z,6.10
2018-05-15T01:02:47.616Z,5.40
2018-05-15T01:03:23.053Z,5.30
2018-05-15T01:03:59.120Z,5.70
2018-05-15T01:04:34.474Z,5.50
2018-05-15T01:05:09.880Z,6.10
2018-05-15T01:05:47.480Z,6.10
2018-05-15T01:06:22.968Z,5.80
2018-05-15T01:06:58.346Z,6.40
2018-05-15T01:07:33.751Z,6.10
2018-05-15T01:08:09.127Z,5.90
2018-05-15T01:08:44.829Z,5.90
2018-05-15T01:09:19.870Z,6.10
2018-05-15T01:09:55.328Z,5.80
2018-05-15T01:10:30.776Z,6.30
2018-05-15T01:11:06.346Z,6.10
2018-05-15T01:11:41.698Z,6.00
2018-05-15T01:12:17.226Z,5.90
2018-05-15T01:12:52.692Z,5.60
2018-05-15T01:13:28.320Z,6.30
2018-05-15T01:14:03.806Z,6.20
2018-05-15T01:14:39.034Z,5.60
2018-05-15T01:15:16.014Z,5.80
2018-05-15T01:15:51.505Z,6.20
2018-05-15T01:16:26.760Z,6.20
2018-05-15T01:17:02.290Z,6.10
2018-05-15T01:17:37.796Z,6.10
2018-05-15T01:18:13.091Z,5.70
2018-05-15T01:18:50.135Z,6.00
2018-05-15T01:19:23.721Z,6.00
2018-05-15T01:19:59.089Z,6.00
2018-05-15T01:20:34.406Z,5.40
2018-05-15T01:21:09.975Z,5.60
2018-05-15T01:21:45.635Z,6.70
2018-05-15T01:22:21.111Z,6.70
2018-05-15T01:22:56.491Z,6.00
2018-05-15T01:23:31.633Z,5.70
2018-05-15T01:24:06.883Z,6.10
2018-05-15T01:24:42.503Z,5.90
2018-05-15T01:25:17.857Z,5.80
2018-05-15T01:25:53.397Z,5.60
2018-05-15T01:26:29.161Z,5.70
2018-05-15T01:27:04.449Z,5.80
2018-05-15T01:27:40.111Z,5.60
2018-05-15T01:28:15.529Z,5.20
2018-05-15T01:28:50.908Z,5.50
2018-05-15T01:29:26.284Z,5.80
2018-05-15T01:30:01.636Z,5.60
2018-05-15T01:30:37.408Z,5.80
2018-05-15T01:31:12.659Z,5.50
2018-05-15T01:31:50.245Z,5.70
2018-05-15T01:32:25.837Z,5.60
2018-05-15T01:33:00.850Z,5.50
2018-05-15T01:33:36.705Z,5.80
2018-05-15T01:34:11.902Z,5.70
2018-05-15T01:34:48.087Z,5.60
2018-05-15T01:35:23.476Z,5.70
2018-05-15T01:36:00.781Z,5.80
2018-05-15T01:36:36.421Z,6.00
2018-05-15T01:37:12.258Z,6.00
2018-05-15T01:37:48.447Z,6.00
2018-05-15T01:38:23.911Z,5.90
2018-05-15T01:38:59.626Z,5.80
2018-05-15T01:39:35.124Z,5.90
2018-05-15T01:40:11.767Z,5.60
2018-05-15T01:40:47.098Z,6.10
2018-05-15T01:41:22.969Z,5.60
2018-05-15T01:41:59.127Z,5.20
2018-05-15T01:42:34.358Z,5.30
2018-05-15T01:43:10.150Z,5.70
2018-05-15T01:43:45.453Z,6.00
2018-05-15T01:44:20.527Z,5.80
2018-05-15T01:44:59.310Z,5.90
2018-05-15T01:45:35.866Z,5.90
2018-05-15T01:46:11.149Z,5.50
2018-05-15T01:46:52.367Z,5.20
2018-05-15T01:47:28.184Z,5.90
2018-05-15T01:48:04.653Z,6.10
2018-05-15T01:48:39.937Z,6.30
2018-05-15T01:49:16.714Z,6.30
2018-05-15T01:49:55.319Z,6.00
2018-05-15T01:50:30.763Z,6.40
2018-05-15T01:51:06.439Z,6.00
2018-05-15T01:51:41.737Z,5.60
2018-05-15T01:52:16.956Z,5.40
2018-05-15T01:52:55.482Z,5.30
2018-05-15T01:53:31.001Z,5.80
2018-05-15T01:54:06.508Z,5.70
2018-05-15T01:54:41.741Z,5.60
2018-05-15T01:55:17.273Z,6.30
2018-05-15T01:55:52.590Z,6.00
2018-05-15T01:56:29.414Z,5.90
2018-05-15T01:57:04.730Z,5.90
2018-05-15T01:57:41.160Z,6.10
2018-05-15T01:58:16.782Z,6.20
2018-05-15T01:58:53.247Z,5.60
2018-05-15T01:59:28.507Z,5.90
2018-05-15T02:00:04.857Z,5.60
2018-05-15T02:00:40.297Z,5.90
2018-05-15T02:01:15.695Z,6.20
2018-05-15T02:01:56.322Z,6.00
2018-05-15T02:02:31.738Z,5.60
2018-05-15T02:03:09.984Z,5.70
2018-05-15T02:03:48.350Z,6.20
2018-05-15T02:04:24.993Z,6.40
2018-05-15T02:05:02.600Z,6.10
2018-05-15T02:05:38.294Z,7.00
2018-05-15T02:06:15.564Z,6.20
2018-05-15T02:06:50.718Z,6.20
2018-05-15T02:07:27.779Z,6.20
2018-05-15T02:08:03.044Z,6.00
2018-05-15T02:08:38.568Z,5.50
2018-05-15T02:09:14.467Z,5.30
2018-05-15T02:09:49.752Z,5.60
2018-05-15T02:10:25.200Z,6.00
2018-05-15T02:11:00.698Z,6.20
2018-05-15T02:11:35.924Z,5.90
2018-05-15T02:12:11.415Z,5.80
2018-05-15T02:12:48.629Z,5.60
2018-05-15T02:13:27.496Z,5.80
2018-05-15T02:14:02.825Z,6.20
2018-05-15T02:14:42.311Z,7.00
2018-05-15T02:15:19.172Z,6.70
2018-05-15T02:15:54.855Z,6.20
2018-05-15T02:16:33.501Z,6.00
2018-05-15T02:17:09.050Z,5.80
2018-05-15T02:17:47.464Z,6.10
2018-05-15T02:18:24.092Z,6.00
2018-05-15T02:18:59.508Z,5.70
2018-05-15T02:19:34.771Z,6.30
2018-05-15T02:20:09.766Z,6.20
2018-05-15T02:20:46.123Z,6.00
2018-05-15T02:21:22.897Z,5.90
2018-05-15T02:21:58.063Z,6.00
2018-05-15T02:22:33.306Z,6.70
2018-05-15T02:23:11.964Z,6.30
2018-05-15T02:23:47.303Z,6.10
2018-05-15T02:24:22.597Z,6.10
2018-05-15T02:24:57.866Z,6.50
2018-05-15T02:25:33.348Z,6.90
2018-05-15T02:26:10.129Z,6.50
2018-05-15T02:26:49.208Z,6.10
2018-05-15T02:27:26.746Z,6.20
2018-05-15T02:28:02.418Z,6.40
2018-05-15T02:28:39.317Z,6.00
2018-05-15T02:29:14.641Z,5.60
2018-05-15T02:29:49.727Z,5.80
2018-05-15T02:30:26.777Z,5.90
2018-05-15T02:31:03.237Z,5.90
2018-05-15T02:31:38.807Z,6.20
2018-05-15T02:32:13.895Z,6.40
2018-05-15T02:32:49.327Z,6.20
2018-05-15T02:33:25.387Z,5.80
2018-05-15T02:34:01.773Z,6.00
2018-05-15T02:34:37.387Z,6.80
2018-05-15T02:35:12.961Z,6.20
2018-05-15T02:35:51.364Z,6.00
2018-05-15T02:36:26.701Z,6.10
2018-05-15T02:37:02.149Z,6.10
2018-05-15T02:37:39.812Z,6.60
2018-05-15T02:38:18.967Z,6.90
2018-05-15T02:38:54.266Z,6.60
2018-05-15T02:39:30.507Z,5.90
2018-05-15T02:40:06.216Z,6.20
2018-05-15T02:40:42.045Z,7.30
2018-05-15T02:41:17.610Z,7.00
2018-05-15T02:41:53.301Z,6.10
2018-05-15T02:42:28.558Z,6.50
2018-05-15T02:43:04.102Z,6.20
2018-05-15T02:43:39.495Z,6.30
2018-05-15T02:44:14.757Z,5.80
2018-05-15T02:44:50.162Z,6.20
2018-05-15T02:45:27.373Z,6.10
2018-05-15T02:46:02.906Z,6.00
2018-05-15T02:46:38.590Z,6.10
2018-05-15T02:47:14.073Z,6.40
2018-05-15T02:47:49.487Z,6.90
2018-05-15T02:48:26.223Z,6.40
2018-05-15T02:49:01.936Z,6.10
2018-05-15T02:49:37.596Z,6.30
2018-05-15T02:50:13.056Z,6.50
2018-05-15T02:50:51.906Z,6.70
2018-05-15T02:51:27.279Z,6.40
2018-05-15T02:52:02.710Z,6.40
2018-05-15T02:52:37.902Z,6.60
2018-05-15T02:53:13.353Z,7.00
2018-05-15T02:53:48.667Z,6.50
2018-05-15T02:54:26.623Z,6.00
2018-05-15T02:55:04.957Z,6.40
2018-05-15T02:55:43.353Z,6.40
2018-05-15T02:56:18.283Z,6.60
2018-05-15T02:56:53.477Z,6.40
2018-05-15T02:57:28.848Z,6.40
2018-05-15T02:58:04.322Z,6.30
2018-05-15T02:58:39.851Z,6.80
2018-05-15T02:59:15.141Z,7.10
2018-05-15T02:59:50.593Z,6.20
2018-05-15T03:00:26.342Z,6.50
2018-05-15T03:01:01.811Z,6.60
2018-05-15T03:01:36.923Z,6.90
2018-05-15T03:02:12.435Z,6.90
2018-05-15T03:02:47.807Z,6.80
2018-05-15T03:03:23.396Z,6.60
2018-05-15T03:03:58.643Z,6.90
2018-05-15T03:04:33.839Z,6.70
2018-05-15T03:05:09.464Z,6.60
2018-05-15T03:05:44.975Z,6.40
2018-05-15T03:06:20.421Z,6.80
2018-05-15T03:06:55.690Z,6.80
2018-05-15T03:07:31.161Z,6.20
2018-05-15T03:08:06.447Z,6.50
2018-05-15T03:08:41.989Z,6.00
2018-05-15T03:09:17.349Z,6.10
2018-05-15T03:09:52.680Z,6.60
2018-05-15T03:10:28.317Z,6.30
2018-05-15T03:11:03.417Z,6.40
2018-05-15T03:11:38.831Z,6.80
2018-05-15T03:12:14.245Z,6.60
2018-05-15T03:12:49.763Z,6.70
2018-05-15T03:13:25.302Z,6.60
2018-05-15T03:14:00.407Z,6.20
2018-05-15T03:14:35.823Z,6.20
2018-05-15T03:15:11.226Z,6.70
2018-05-15T03:15:47.609Z,6.80
2018-05-15T03:16:23.144Z,6.70
2018-05-15T03:16:58.572Z,6.70
2018-05-15T03:17:33.927Z,6.60
2018-05-15T03:18:09.217Z,6.80
2018-05-15T03:18:44.717Z,6.60
2018-05-15T03:19:20.267Z,6.40
2018-05-15T03:19:55.378Z,6.00
2018-05-15T03:20:30.756Z,6.30
2018-05-15T03:21:05.968Z,6.50
2018-05-15T03:21:41.080Z,6.80
2018-05-15T03:22:16.511Z,6.90
2018-05-15T03:22:51.602Z,7.30
2018-05-15T03:23:26.821Z,7.10
2018-05-15T03:24:02.043Z,6.70
2018-05-15T03:24:37.256Z,7.20
2018-05-15T03:25:12.696Z,7.30
2018-05-15T03:25:48.765Z,7.40
2018-05-15T03:26:24.411Z,7.70
2018-05-15T03:26:59.820Z,6.90
2018-05-15T03:27:35.443Z,7.20
2018-05-15T03:28:10.900Z,7.50
2018-05-15T03:28:47.240Z,7.40
2018-05-15T03:29:22.685Z,7.40
2018-05-15T03:29:58.262Z,8.20
2018-05-15T03:30:33.607Z,8.10
2018-05-15T03:31:09.036Z,7.90
2018-05-15T03:31:44.327Z,7.60
2018-05-15T03:32:19.587Z,6.70
2018-05-15T03:32:54.979Z,7.30
2018-05-15T03:33:30.417Z,7.10
2018-05-15T03:34:05.772Z,7.30
2018-05-15T03:34:41.023Z,7.10
2018-05-15T03:35:16.475Z,7.20
2018-05-15T03:35:51.883Z,6.80
2018-05-15T03:36:27.427Z,7.30
2018-05-15T03:37:02.934Z,7.30
2018-05-15T03:37:38.390Z,7.20
2018-05-15T03:38:13.610Z,7.00
2018-05-15T03:38:49.047Z,7.20
2018-05-15T03:39:24.301Z,7.00
2018-05-15T03:39:59.803Z,7.00
2018-05-15T03:40:35.387Z,7.70
2018-05-15T03:41:10.619Z,7.60
2018-05-15T03:41:46.044Z,7.20
2018-05-15T03:42:21.560Z,7.70
2018-05-15T03:42:56.951Z,7.70
2018-05-15T03:43:32.635Z,7.20
2018-05-15T03:44:08.199Z,7.20
2018-05-15T03:44:43.974Z,7.50
2018-05-15T03:45:19.314Z,7.30
2018-05-15T03:45:55.209Z,7.40
2018-05-15T03:46:30.578Z,7.70
2018-05-15T03:47:06.038Z,7.70
2018-05-15T03:47:41.376Z,7.40
2018-05-15T03:48:17.021Z,7.80
2018-05-15T03:48:52.573Z,8.10
2018-05-15T03:49:28.283Z,7.80
2018-05-15T03:50:03.639Z,7.30
2018-05-15T03:50:40.022Z,6.90
2018-05-15T03:51:15.388Z,7.40
2018-05-15T03:51:50.628Z,7.40
2018-05-15T03:52:25.901Z,7.20
2018-05-15T03:53:01.394Z,7.60
2018-05-15T03:53:36.982Z,7.60
2018-05-15T03:54:12.076Z,7.40
2018-05-15T03:54:47.505Z,7.60
2018-05-15T03:55:23.194Z,8.20
2018-05-15T03:55:58.619Z,7.90
2018-05-15T03:56:34.290Z,7.70
2018-05-15T03:57:09.826Z,7.60
2018-05-15T03:57:45.158Z,7.50
2018-05-15T03:58:20.673Z,7.50
2018-05-15T03:58:56.030Z,8.40
2018-05-15T03:59:31.474Z,8.70
2018-05-15T04:00:07.052Z,7.90
2018-05-15T04:00:46.000Z,8.00
2018-05-15T04:01:21.379Z,8.20
2018-05-15T04:01:56.650Z,8.30
2018-05-15T04:02:32.118Z,8.60
2018-05-15T04:03:07.481Z,8.40
2018-05-15T04:03:42.678Z,8.60
2018-05-15T04:04:18.454Z,8.10
2018-05-15T04:04:54.239Z,7.50
2018-05-15T04:05:29.688Z,7.90
2018-05-15T04:06:04.897Z,8.00
2018-05-15T04:06:42.662Z,8.10
2018-05-15T04:07:18.350Z,8.40
2018-05-15T04:07:54.218Z,8.10
2018-05-15T04:08:29.988Z,8.30
2018-05-15T04:09:05.253Z,8.00
2018-05-15T04:09:40.547Z,8.40
2018-05-15T04:10:15.572Z,8.00
2018-05-15T04:10:51.229Z,8.10
2018-05-15T04:11:26.478Z,8.90
2018-05-15T04:12:02.115Z,8.30
2018-05-15T04:12:37.617Z,7.50
2018-05-15T04:13:12.999Z,7.30
2018-05-15T04:13:48.363Z,8.00
2018-05-15T04:14:23.932Z,8.20
2018-05-15T04:14:59.229Z,8.10
2018-05-15T04:15:34.592Z,8.10
2018-05-15T04:16:10.012Z,7.80
2018-05-15T04:16:45.637Z,7.60
2018-05-15T04:17:20.853Z,7.90
2018-05-15T04:17:56.208Z,9.10
2018-05-15T04:18:31.726Z,8.60
2018-05-15T04:19:07.136Z,8.20
2018-05-15T04:19:42.603Z,8.30
2018-05-15T04:20:17.729Z,8.00
2018-05-15T04:20:52.920Z,8.40
2018-05-15T04:21:29.982Z,8.50
2018-05-15T04:22:06.414Z,8.10
2018-05-15T04:22:41.963Z,7.80
2018-05-15T04:23:17.100Z,7.80
2018-05-15T04:23:52.716Z,8.20
2018-05-15T04:24:28.356Z,8.50
2018-05-15T04:25:03.724Z,8.00
2018-05-15T04:25:39.452Z,8.10
2018-05-15T04:26:14.892Z,7.90
2018-05-15T04:26:50.978Z,8.10
2018-05-15T04:27:26.200Z,7.90
2018-05-15T04:28:01.943Z,7.80
2018-05-15T04:28:38.015Z,7.20
2018-05-15T04:29:13.480Z,7.20
2018-05-15T04:29:48.805Z,7.60
2018-05-15T04:30:24.439Z,7.90
2018-05-15T04:30:59.759Z,8.00
2018-05-15T04:31:35.218Z,8.70
2018-05-15T04:32:10.680Z,7.80
2018-05-15T04:32:46.134Z,7.40
2018-05-15T04:33:21.738Z,7.70
2018-05-15T04:33:57.283Z,7.10
2018-05-15T04:34:32.466Z,7.30
2018-05-15T04:35:07.713Z,8.20
2018-05-15T04:35:43.303Z,8.80
2018-05-15T04:36:18.647Z,7.60
2018-05-15T04:36:54.243Z,8.00
2018-05-15T04:37:29.311Z,7.90
2018-05-15T04:38:04.566Z,7.40
2018-05-15T04:38:40.003Z,7.60
2018-05-15T04:39:16.009Z,7.90
2018-05-15T04:39:51.635Z,7.90
2018-05-15T04:40:27.696Z,7.30
2018-05-15T04:41:03.159Z,7.40
2018-05-15T04:41:38.600Z,8.00
2018-05-15T04:42:14.121Z,8.00
2018-05-15T04:42:51.237Z,8.00
2018-05-15T04:43:26.592Z,8.10
2018-05-15T04:44:02.025Z,7.40
2018-05-15T04:44:37.172Z,8.40
2018-05-15T04:45:12.554Z,8.30
2018-05-15T04:45:48.334Z,7.40
2018-05-15T04:46:23.691Z,7.50
2018-05-15T04:47:01.570Z,6.60
2018-05-15T04:47:36.937Z,7.30
2018-05-15T04:48:12.513Z,7.60
2018-05-15T04:48:47.861Z,7.30
2018-05-15T04:49:23.317Z,7.80
2018-05-15T04:49:58.742Z,7.50
2018-05-15T04:50:34.210Z,7.10
2018-05-15T04:51:09.449Z,7.20
2018-05-15T04:51:44.808Z,7.40
2018-05-15T04:52:20.235Z,7.70
2018-05-15T04:52:55.923Z,7.30
2018-05-15T04:53:31.611Z,7.20
2018-05-15T04:54:06.928Z,7.40
2018-05-15T04:54:44.293Z,7.40
2018-05-15T04:55:19.534Z,7.30
2018-05-15T04:55:54.815Z,7.10
2018-05-15T04:56:30.781Z,7.50
2018-05-15T04:57:06.079Z,7.60
2018-05-15T04:57:41.084Z,6.80
2018-05-15T04:58:16.447Z,7.20
2018-05-15T04:58:52.201Z,8.00
2018-05-15T04:59:27.881Z,7.30
2018-05-15T05:00:03.393Z,6.80
2018-05-15T05:00:39.531Z,7.30
2018-05-15T05:01:17.604Z,7.70
2018-05-15T05:01:54.099Z,7.90
2018-05-15T05:02:29.542Z,7.10
2018-05-15T05:03:06.902Z,6.90
2018-05-15T05:03:42.573Z,7.10
2018-05-15T05:04:17.902Z,7.60
2018-05-15T05:04:55.843Z,7.00
2018-05-15T05:05:31.058Z,7.00
2018-05-15T05:06:06.263Z,7.10
2018-05-15T05:06:41.784Z,7.40
2018-05-15T05:07:17.091Z,7.90
2018-05-15T05:07:52.351Z,7.10
2018-05-15T05:08:27.920Z,6.10
2018-05-15T05:09:03.396Z,6.60
2018-05-15T05:09:39.356Z,6.90
2018-05-15T05:10:14.695Z,6.70
2018-05-15T05:10:50.199Z,6.50
2018-05-15T05:11:28.326Z,6.70
2018-05-15T05:12:03.781Z,6.50
2018-05-15T05:12:39.415Z,6.90
2018-05-15T05:13:14.928Z,6.80
2018-05-15T05:13:50.277Z,6.70
2018-05-15T05:14:26.864Z,6.70
2018-05-15T05:15:04.268Z,6.80
2018-05-15T05:15:39.697Z,6.60
2018-05-15T05:16:16.109Z,6.80
2018-05-15T05:16:51.566Z,6.80
2018-05-15T05:17:27.226Z,7.10
2018-05-15T05:18:02.639Z,7.30
2018-05-15T05:18:38.067Z,7.30
2018-05-15T05:19:13.516Z,7.40
2018-05-15T05:19:48.823Z,7.60
2018-05-15T05:20:24.349Z,7.00
2018-05-15T05:21:03.003Z,6.70
2018-05-15T05:21:38.175Z,7.10
2018-05-15T05:22:13.843Z,7.20
2018-05-15T05:22:49.152Z,7.00
2018-05-15T05:23:24.510Z,6.60
2018-05-15T05:23:59.831Z,6.60
2018-05-15T05:24:35.028Z,6.40
2018-05-15T05:25:10.405Z,6.60
2018-05-15T05:25:49.250Z,7.00
2018-05-15T05:26:25.046Z,7.50
2018-05-15T05:27:00.367Z,6.90
2018-05-15T05:27:35.706Z,6.70
2018-05-15T05:28:10.812Z,7.20
2018-05-15T05:28:46.474Z,7.40
2018-05-15T05:29:21.845Z,6.90
2018-05-15T05:29:57.331Z,7.50
2018-05-15T05:30:32.519Z,6.90
2018-05-15T05:31:08.349Z,7.40
2018-05-15T05:31:46.304Z,7.00
2018-05-15T05:32:23.110Z,7.10
2018-05-15T05:32:58.356Z,7.20
2018-05-15T05:33:33.988Z,7.20
2018-05-15T05:34:09.775Z,6.00
2018-05-15T05:34:47.050Z,6.20
2018-05-15T05:35:22.392Z,6.80
2018-05-15T05:35:57.831Z,6.90
2018-05-15T05:36:33.129Z,7.40
2018-05-15T05:37:08.621Z,7.40
2018-05-15T05:37:45.075Z,6.90
2018-05-15T05:38:20.577Z,7.10
2018-05-15T05:38:56.911Z,7.10
2018-05-15T05:39:32.245Z,6.90
2018-05-15T05:40:08.233Z,7.00
2018-05-15T05:40:44.998Z,6.40
2018-05-15T05:41:20.427Z,6.70
2018-05-15T05:41:55.640Z,6.50
2018-05-15T05:42:31.162Z,7.10
2018-05-15T05:43:06.682Z,7.10
2018-05-15T05:43:41.996Z,6.80
2018-05-15T05:44:17.188Z,7.10
2018-05-15T05:44:52.701Z,6.70
2018-05-15T05:45:28.293Z,6.80
2018-05-15T05:46:03.578Z,7.20
2018-05-15T05:46:39.035Z,6.90
2018-05-15T05:47:14.254Z,6.50
2018-05-15T05:47:49.435Z,7.00
2018-05-15T05:48:25.217Z,6.90
2018-05-15T05:49:00.751Z,6.40
2018-05-15T05:49:36.177Z,6.40
2018-05-15T05:50:11.762Z,6.90
2018-05-15T05:50:51.487Z,7.10
2018-05-15T05:51:29.171Z,6.90
2018-05-15T05:52:05.613Z,7.10
2018-05-15T05:52:41.290Z,6.80
2018-05-15T05:53:16.930Z,6.70
2018-05-15T05:53:55.705Z,6.40
2018-05-15T05:54:34.035Z,6.30
2018-05-15T05:55:09.521Z,6.20
2018-05-15T05:55:44.874Z,5.90
2018-05-15T05:56:20.384Z,7.00
2018-05-15T05:56:57.040Z,6.40
2018-05-15T05:57:32.420Z,6.60
2018-05-15T05:58:07.787Z,6.30
2018-05-15T05:58:43.074Z,5.60
2018-05-15T05:59:18.313Z,6.10
2018-05-15T05:59:53.713Z,6.30
2018-05-15T06:00:28.913Z,7.20
2018-05-15T06:01:04.770Z,6.90
2018-05-15T06:01:40.216Z,5.80
2018-05-15T06:02:15.544Z,6.00
2018-05-15T06:02:51.252Z,6.00
2018-05-15T06:03:26.928Z,5.70
2018-05-15T06:04:02.272Z,6.40
2018-05-15T06:04:37.798Z,6.70
2018-05-15T06:05:13.177Z,6.30
2018-05-15T06:05:48.478Z,6.30
2018-05-15T06:06:23.797Z,6.00
2018-05-15T06:06:59.490Z,6.40
2018-05-15T06:07:34.922Z,6.40
2018-05-15T06:08:10.401Z,6.30
2018-05-15T06:08:45.945Z,6.40
2018-05-15T06:09:21.242Z,5.70
2018-05-15T06:09:56.640Z,5.40
2018-05-15T06:10:32.093Z,5.50
2018-05-15T06:11:07.558Z,5.90
2018-05-15T06:11:43.163Z,6.10
2018-05-15T06:12:18.442Z,5.90
2018-05-15T06:12:53.910Z,5.50
2018-05-15T06:13:29.256Z,5.50
2018-05-15T06:14:04.744Z,5.30
2018-05-15T06:14:40.281Z,5.70
2018-05-15T06:15:15.739Z,5.70
2018-05-15T06:15:51.662Z,5.70
2018-05-15T06:16:27.060Z,6.20
2018-05-15T06:17:02.389Z,5.90
2018-05-15T06:17:37.587Z,5.90
2018-05-15T06:18:13.039Z,6.20
2018-05-15T06:18:48.541Z,6.30
2018-05-15T06:19:23.907Z,6.20
2018-05-15T06:19:59.152Z,5.90
2018-05-15T06:20:34.194Z,5.90
2018-05-15T06:21:09.672Z,5.80
2018-05-15T06:21:45.262Z,6.50
2018-05-15T06:22:20.653Z,6.60
2018-05-15T06:22:56.018Z,6.10
2018-05-15T06:23:31.392Z,6.20
2018-05-15T06:24:06.998Z,6.50
2018-05-15T06:24:42.839Z,6.50
2018-05-15T06:25:18.460Z,6.30
2018-05-15T06:25:57.782Z,6.50
2018-05-15T06:26:33.232Z,6.00
2018-05-15T06:27:08.678Z,6.30
2018-05-15T06:27:45.358Z,6.60
2018-05-15T06:28:20.821Z,6.90
2018-05-15T06:28:56.182Z,6.80
2018-05-15T06:29:31.649Z,6.70
2018-05-15T06:30:07.229Z,6.70
2018-05-15T06:30:46.981Z,7.10
2018-05-15T06:31:22.468Z,7.20
2018-05-15T06:31:57.506Z,6.30
2018-05-15T06:32:32.800Z,6.00
2018-05-15T06:33:08.367Z,6.80
2018-05-15T06:33:43.887Z,7.40
2018-05-15T06:34:19.455Z,6.80
2018-05-15T06:34:54.707Z,6.90
2018-05-15T06:35:30.363Z,7.00
2018-05-15T06:36:05.556Z,6.50
2018-05-15T06:36:42.513Z,6.40
2018-05-15T06:37:17.696Z,7.00
2018-05-15T06:37:53.256Z,7.50
2018-05-15T06:38:28.692Z,6.60
2018-05-15T06:39:04.094Z,6.30
2018-05-15T06:39:39.468Z,7.00
2018-05-15T06:40:15.029Z,7.50
2018-05-15T06:40:53.788Z,6.90
2018-05-15T06:41:32.218Z,7.00
2018-05-15T06:42:10.761Z,6.70
2018-05-15T06:42:49.227Z,7.00
2018-05-15T06:43:24.642Z,6.70
2018-05-15T06:44:01.615Z,7.10
2018-05-15T06:46:38.637Z,6.30
2018-05-15T06:47:14.090Z,6.60
2018-05-15T06:47:49.216Z,6.90
2018-05-15T06:48:24.756Z,6.80
2018-05-15T06:49:01.750Z,6.40
2018-05-15T06:49:37.965Z,6.80
2018-05-15T06:50:14.350Z,7.00
2018-05-15T06:50:51.577Z,7.20
2018-05-15T06:51:30.225Z,6.40
2018-05-15T06:52:05.626Z,6.30
2018-05-15T06:52:41.179Z,7.00
2018-05-15T06:53:16.341Z,6.30
2018-05-15T06:53:52.395Z,6.20
2018-05-15T06:54:27.943Z,6.90
2018-05-15T06:55:03.104Z,6.40
2018-05-15T06:55:38.453Z,6.20
2018-05-15T06:56:16.622Z,6.20
2018-05-15T06:56:52.044Z,6.20
2018-05-15T06:57:27.356Z,5.90
2018-05-15T06:58:02.850Z,6.30
2018-05-15T06:58:40.681Z,6.10
2018-05-15T06:59:16.202Z,5.90
2018-05-15T06:59:51.489Z,5.90
2018-05-15T07:00:26.887Z,5.90
2018-05-15T07:01:05.364Z,6.30
2018-05-15T07:01:44.493Z,5.80
2018-05-15T07:02:19.846Z,5.90
2018-05-15T07:02:58.296Z,6.10
2018-05-15T07:03:33.727Z,6.40
2018-05-15T07:04:09.064Z,6.40
2018-05-15T07:04:44.189Z,6.30
2018-05-15T07:05:19.265Z,6.10
2018-05-15T07:05:57.880Z,5.70
2018-05-15T07:06:36.218Z,6.10
2018-05-15T07:07:11.585Z,6.40
2018-05-15T07:07:49.400Z,6.20
2018-05-15T07:08:24.699Z,6.60
2018-05-15T07:09:03.561Z,6.70
2018-05-15T07:09:39.101Z,6.50
2018-05-15T07:10:14.567Z,6.60
2018-05-15T07:10:50.080Z,5.70
2018-05-15T07:11:25.274Z,5.70
2018-05-15T07:12:00.943Z,6.10
2018-05-15T07:12:39.316Z,6.40
2018-05-15T07:13:17.255Z,6.20
2018-05-15T07:13:52.703Z,6.50
2018-05-15T07:14:28.238Z,6.60
2018-05-15T07:15:03.437Z,5.60
2018-05-15T07:15:39.599Z,5.60
2018-05-15T07:16:14.960Z,6.10
2018-05-15T07:16:54.357Z,6.50
2018-05-15T07:17:31.793Z,6.20
2018-05-15T07:18:08.907Z,6.40
2018-05-15T07:18:44.303Z,6.20
2018-05-15T07:19:19.643Z,6.30
2018-05-15T07:19:55.013Z,6.40
2018-05-15T07:20:30.217Z,6.30
2018-05-15T07:21:05.699Z,6.20
2018-05-15T07:21:41.263Z,6.10
2018-05-15T07:22:16.356Z,5.70
2018-05-15T07:22:51.810Z,5.70
2018-05-15T07:23:27.585Z,6.40
2018-05-15T07:24:02.975Z,6.80
2018-05-15T07:24:38.392Z,6.50
2018-05-15T07:25:15.697Z,6.30
2018-05-15T07:25:55.391Z,5.90
2018-05-15T07:26:30.720Z,6.70
2018-05-15T07:27:06.134Z,6.40
2018-05-15T07:27:47.270Z,6.30
2018-05-15T07:28:23.908Z,6.40
2018-05-15T07:29:01.653Z,6.20
2018-05-15T07:29:37.115Z,6.50
2018-05-15T07:30:12.423Z,6.80
2018-05-15T07:30:47.634Z,6.70
2018-05-15T07:31:22.827Z,6.40
2018-05-15T07:31:58.306Z,6.40
2018-05-15T07:32:36.309Z,6.20
2018-05-15T07:33:11.590Z,6.20
2018-05-15T07:33:50.969Z,6.10
2018-05-15T07:34:26.527Z,6.20
2018-05-15T07:35:01.753Z,6.00
2018-05-15T07:35:40.266Z,6.10
2018-05-15T07:36:15.800Z,6.40
2018-05-15T07:36:51.100Z,6.20
2018-05-15T07:37:26.630Z,6.20
2018-05-15T07:38:02.389Z,6.60
2018-05-15T07:38:38.321Z,6.30
2018-05-15T07:39:13.792Z,5.90
2018-05-15T07:39:49.260Z,6.60
2018-05-15T07:40:24.682Z,6.60
2018-05-15T07:41:02.971Z,6.00
2018-05-15T07:41:38.841Z,5.60
2018-05-15T07:42:14.171Z,5.80
2018-05-15T07:42:52.484Z,5.90
2018-05-15T07:43:27.716Z,6.60
2018-05-15T07:44:03.460Z,6.30
2018-05-15T07:44:39.060Z,5.90
2018-05-15T07:45:14.413Z,6.40
2018-05-15T07:45:49.691Z,6.60
2018-05-15T07:46:25.115Z,6.60
2018-05-15T07:47:00.524Z,6.30
2018-05-15T07:47:35.836Z,6.20
2018-05-15T07:48:11.138Z,6.20
2018-05-15T07:48:46.971Z,6.10
2018-05-15T07:49:22.227Z,6.20
2018-05-15T07:49:57.812Z,6.50
2018-05-15T07:50:33.260Z,6.20
2018-05-15T07:51:08.351Z,6.50
2018-05-15T07:51:44.074Z,6.80
2018-05-15T07:52:19.357Z,6.00
2018-05-15T07:52:54.419Z,6.00
2018-05-15T07:53:29.802Z,6.30
2018-05-15T07:54:05.371Z,6.00
2018-05-15T07:54:40.829Z,5.70
2018-05-15T07:55:16.071Z,5.90
2018-05-15T07:55:51.288Z,5.80
2018-05-15T07:56:26.908Z,6.30
2018-05-15T07:57:02.472Z,5.70
2018-05-15T07:57:37.820Z,5.90
2018-05-15T07:58:13.171Z,5.80
2018-05-15T07:58:48.499Z,6.00
2018-05-15T07:59:23.817Z,6.10